This is the latest recevied weather packets stored in our database for station/object OE-2100. If no packets are shown the sender has not sent any weather packets the latest 10 day(s).
| Time | Temp. | Humidity | Pressure | Rain* | Wind** | Luminosity | Snow |
|---|---|---|---|---|---|---|---|
| 1788516668 | 26.11° C | 49% | 1017.8 hPa | - | - | - | - |
| 1788514868 | 25.56° C | 47% | 1019 hPa | - | - | - | - |
| 1788513068 | 24.44° C | 52% | 1019.3 hPa | - | - | - | - |
| 1788511267 | 23.89° C | 56% | 1019.4 hPa | - | - | - | - |
| 1788509467 | 22.78° C | 59% | 1019.7 hPa | - | - | - | - |
| 1788507668 | 21.67° C | 63% | 1019.9 hPa | - | - | - | - |
| 1788505868 | 18.89° C | 71% | 1020.6 hPa | - | - | - | - |
| 1788504068 | 18.89° C | 70% | 1020.7 hPa | - | - | - | - |
| 1788502268 | 18.89° C | 63% | 1020.6 hPa | - | - | - | - |
| 1788500468 | 19.44° C | 60% | 1020.6 hPa | - | - | - | - |
| 1788498667 | 18.89° C | 63% | 1020.7 hPa | - | - | - | - |
| 1788496867 | 18.89° C | 61% | 1020.6 hPa | - | - | - | - |
| 1788495068 | 20° C | 58% | 1020.4 hPa | - | - | - | - |
| 1788491468 | 19.44° C | 61% | 1020.6 hPa | - | - | - | - |
| 1788487867 | 20.56° C | 57% | 1021.4 hPa | - | - | - | - |
| 1788486068 | 20° C | 58% | 1021.5 hPa | - | - | - | - |
| 1788484268 | 20° C | 57% | 1021.4 hPa | - | - | - | - |
| 1788478868 | 19.44° C | 63% | 1021.6 hPa | - | - | - | - |
| 1788466268 | 21.11° C | 59% | 1021.2 hPa | - | - | - | - |
| 1788441069 | 23.89° C | 53% | 1019.3 hPa | - | - | - | - |
| 1788433868 | 23.33° C | 56% | 1020.7 hPa | - | - | - | - |
| 1788430268 | 21.67° C | 59% | 1021 hPa | - | - | - | - |
| 1788428468 | 22.78° C | 58% | 1020.7 hPa | - | - | - | - |
| 1788426668 | 22.22° C | 59% | 1020.9 hPa | - | - | - | - |
| 1788423068 | 22.22° C | 64% | 1020.9 hPa | - | - | - | - |
* Rain since midnight (hover to see other rain measurements)
** Current wind speed in m/s (hover to see current wind gust speed)